sensor_id;sensor_type;location;lat;lon;timestamp;temperature;humidity
22416;DHT22;12204;50.600;4.608;2023-03-01T00:03:33;15.70;71.70
22416;DHT22;12204;50.600;4.608;2023-03-01T00:08:37;15.70;71.60
22416;DHT22;12204;50.600;4.608;2023-03-01T00:13:43;15.70;71.70
22416;DHT22;12204;50.600;4.608;2023-03-01T00:18:47;15.70;71.80
22416;DHT22;12204;50.600;4.608;2023-03-01T00:23:51;15.70;71.70
22416;DHT22;12204;50.600;4.608;2023-03-01T00:28:57;15.70;71.70
22416;DHT22;12204;50.600;4.608;2023-03-01T00:34:03;15.70;71.70
22416;DHT22;12204;50.600;4.608;2023-03-01T00:39:11;15.70;71.60
22416;DHT22;12204;50.600;4.608;2023-03-01T00:44:20;15.70;71.70
22416;DHT22;12204;50.600;4.608;2023-03-01T00:49:24;15.70;71.70
22416;DHT22;12204;50.600;4.608;2023-03-01T00:54:31;15.80;71.70
22416;DHT22;12204;50.600;4.608;2023-03-01T00:59:36;15.70;71.70
22416;DHT22;12204;50.600;4.608;2023-03-01T01:04:39;15.70;71.70
22416;DHT22;12204;50.600;4.608;2023-03-01T01:09:43;15.70;71.70
22416;DHT22;12204;50.600;4.608;2023-03-01T01:14:47;15.70;71.70
22416;DHT22;12204;50.600;4.608;2023-03-01T01:19:51;15.70;71.70
22416;DHT22;12204;50.600;4.608;2023-03-01T01:24:54;15.70;71.60
22416;DHT22;12204;50.600;4.608;2023-03-01T01:30:00;15.70;71.60
22416;DHT22;12204;50.600;4.608;2023-03-01T01:35:04;15.70;71.60
22416;DHT22;12204;50.600;4.608;2023-03-01T01:40:10;15.70;71.60
22416;DHT22;12204;50.600;4.608;2023-03-01T01:45:34;15.70;71.60
22416;DHT22;12204;50.600;4.608;2023-03-01T01:50:40;15.70;71.60
22416;DHT22;12204;50.600;4.608;2023-03-01T01:55:51;15.70;71.60
22416;DHT22;12204;50.600;4.608;2023-03-01T02:01:01;15.70;71.60
22416;DHT22;12204;50.600;4.608;2023-03-01T02:06:12;15.70;71.60
22416;DHT22;12204;50.600;4.608;2023-03-01T02:11:19;15.70;71.60
22416;DHT22;12204;50.600;4.608;2023-03-01T02:16:25;15.70;71.70
22416;DHT22;12204;50.600;4.608;2023-03-01T02:21:37;15.70;71.60
22416;DHT22;12204;50.600;4.608;2023-03-01T02:26:52;15.70;71.60
22416;DHT22;12204;50.600;4.608;2023-03-01T02:32:00;15.70;71.60
22416;DHT22;12204;50.600;4.608;2023-03-01T02:37:10;15.70;71.60
22416;DHT22;12204;50.600;4.608;2023-03-01T02:42:23;15.70;71.60
22416;DHT22;12204;50.600;4.608;2023-03-01T02:47:31;15.70;71.60
22416;DHT22;12204;50.600;4.608;2023-03-01T02:52:43;15.70;71.60
22416;DHT22;12204;50.600;4.608;2023-03-01T02:57:50;15.70;71.70
22416;DHT22;12204;50.600;4.608;2023-03-01T03:02:56;15.70;71.60
22416;DHT22;12204;50.600;4.608;2023-03-01T03:08:02;15.70;71.60
22416;DHT22;12204;50.600;4.608;2023-03-01T03:13:11;15.70;71.60
22416;DHT22;12204;50.600;4.608;2023-03-01T03:18:18;15.70;71.50
22416;DHT22;12204;50.600;4.608;2023-03-01T03:23:22;15.70;71.60
22416;DHT22;12204;50.600;4.608;2023-03-01T03:28:26;15.70;71.60
22416;DHT22;12204;50.600;4.608;2023-03-01T03:33:31;15.70;71.60
22416;DHT22;12204;50.600;4.608;2023-03-01T03:38:35;15.60;71.50
22416;DHT22;12204;50.600;4.608;2023-03-01T03:43:39;15.70;71.60
22416;DHT22;12204;50.600;4.608;2023-03-01T03:48:45;15.70;71.50
22416;DHT22;12204;50.600;4.608;2023-03-01T03:53:49;15.60;71.50
22416;DHT22;12204;50.600;4.608;2023-03-01T03:58:53;15.60;71.60
22416;DHT22;12204;50.600;4.608;2023-03-01T04:03:57;15.60;71.50
22416;DHT22;12204;50.600;4.608;2023-03-01T04:09:05;15.60;71.50
22416;DHT22;12204;50.600;4.608;2023-03-01T04:14:09;15.60;71.40
22416;DHT22;12204;50.600;4.608;2023-03-01T04:19:14;15.60;71.40
22416;DHT22;12204;50.600;4.608;2023-03-01T04:24:18;15.60;71.50
22416;DHT22;12204;50.600;4.608;2023-03-01T04:29:21;15.60;71.50
22416;DHT22;12204;50.600;4.608;2023-03-01T04:34:27;15.60;71.40
22416;DHT22;12204;50.600;4.608;2023-03-01T04:39:31;15.60;71.40
22416;DHT22;12204;50.600;4.608;2023-03-01T04:44:34;15.60;71.40
22416;DHT22;12204;50.600;4.608;2023-03-01T04:49:39;15.60;71.40
22416;DHT22;12204;50.600;4.608;2023-03-01T04:54:42;15.60;71.40
22416;DHT22;12204;50.600;4.608;2023-03-01T04:59:46;15.60;71.40
22416;DHT22;12204;50.600;4.608;2023-03-01T05:04:51;15.60;71.30
22416;DHT22;12204;50.600;4.608;2023-03-01T05:09:59;15.60;71.30
22416;DHT22;12204;50.600;4.608;2023-03-01T05:15:02;15.60;71.40
22416;DHT22;12204;50.600;4.608;2023-03-01T05:20:10;15.60;71.40
22416;DHT22;12204;50.600;4.608;2023-03-01T05:25:14;15.60;71.30
22416;DHT22;12204;50.600;4.608;2023-03-01T05:30:18;15.60;71.40
22416;DHT22;12204;50.600;4.608;2023-03-01T05:35:24;15.60;71.40
22416;DHT22;12204;50.600;4.608;2023-03-01T05:40:28;15.60;71.30
22416;DHT22;12204;50.600;4.608;2023-03-01T05:45:32;15.60;72.10
22416;DHT22;12204;50.600;4.608;2023-03-01T05:50:39;15.60;71.40
22416;DHT22;12204;50.600;4.608;2023-03-01T05:55:44;15.50;71.30
22416;DHT22;12204;50.600;4.608;2023-03-01T06:00:49;15.60;71.30
22416;DHT22;12204;50.600;4.608;2023-03-01T06:05:57;15.50;71.20
22416;DHT22;12204;50.600;4.608;2023-03-01T06:11:01;15.50;71.20
22416;DHT22;12204;50.600;4.608;2023-03-01T06:16:05;15.50;71.20
22416;DHT22;12204;50.600;4.608;2023-03-01T06:21:11;15.50;71.30
22416;DHT22;12204;50.600;4.608;2023-03-01T06:26:14;15.50;71.20
22416;DHT22;12204;50.600;4.608;2023-03-01T06:31:18;15.50;71.20
22416;DHT22;12204;50.600;4.608;2023-03-01T06:36:22;15.50;71.30
22416;DHT22;12204;50.600;4.608;2023-03-01T06:41:26;15.50;71.20
22416;DHT22;12204;50.600;4.608;2023-03-01T06:46:29;15.50;71.30
22416;DHT22;12204;50.600;4.608;2023-03-01T06:51:35;15.50;71.30
22416;DHT22;12204;50.600;4.608;2023-03-01T06:56:39;15.50;71.20
22416;DHT22;12204;50.600;4.608;2023-03-01T07:01:43;15.50;71.20
22416;DHT22;12204;50.600;4.608;2023-03-01T07:06:47;15.50;71.30
22416;DHT22;12204;50.600;4.608;2023-03-01T07:11:57;15.50;71.10
22416;DHT22;12204;50.600;4.608;2023-03-01T07:17:00;15.50;71.10
22416;DHT22;12204;50.600;4.608;2023-03-01T07:22:05;15.50;71.10
22416;DHT22;12204;50.600;4.608;2023-03-01T07:27:09;15.50;71.10
22416;DHT22;12204;50.600;4.608;2023-03-01T07:32:13;15.50;71.10
22416;DHT22;12204;50.600;4.608;2023-03-01T07:37:18;15.50;71.10
22416;DHT22;12204;50.600;4.608;2023-03-01T07:42:21;15.50;71.10
22416;DHT22;12204;50.600;4.608;2023-03-01T07:47:25;15.50;71.10
22416;DHT22;12204;50.600;4.608;2023-03-01T07:52:30;15.50;71.10
22416;DHT22;12204;50.600;4.608;2023-03-01T07:57:33;15.50;71.00
22416;DHT22;12204;50.600;4.608;2023-03-01T08:02:37;15.50;70.90
22416;DHT22;12204;50.600;4.608;2023-03-01T08:07:43;15.50;71.00
22416;DHT22;12204;50.600;4.608;2023-03-01T08:12:47;15.50;70.90
22416;DHT22;12204;50.600;4.608;2023-03-01T08:17:50;15.50;71.00
22416;DHT22;12204;50.600;4.608;2023-03-01T08:22:55;15.50;70.90
22416;DHT22;12204;50.600;4.608;2023-03-01T08:28:01;15.50;71.00
22416;DHT22;12204;50.600;4.608;2023-03-01T08:33:04;15.50;70.90
22416;DHT22;12204;50.600;4.608;2023-03-01T08:38:09;15.50;70.90
22416;DHT22;12204;50.600;4.608;2023-03-01T08:43:12;15.50;70.90
22416;DHT22;12204;50.600;4.608;2023-03-01T08:48:16;15.50;70.90
22416;DHT22;12204;50.600;4.608;2023-03-01T08:53:20;15.50;70.80
22416;DHT22;12204;50.600;4.608;2023-03-01T08:58:24;15.50;70.80
22416;DHT22;12204;50.600;4.608;2023-03-01T09:03:27;15.50;70.80
22416;DHT22;12204;50.600;4.608;2023-03-01T09:08:34;15.50;70.70
22416;DHT22;12204;50.600;4.608;2023-03-01T09:13:39;15.50;70.80
22416;DHT22;12204;50.600;4.608;2023-03-01T09:18:48;15.50;70.80
22416;DHT22;12204;50.600;4.608;2023-03-01T09:23:56;15.50;70.90
22416;DHT22;12204;50.600;4.608;2023-03-01T09:29:00;15.50;70.80
22416;DHT22;12204;50.600;4.608;2023-03-01T09:34:04;15.50;70.80
22416;DHT22;12204;50.600;4.608;2023-03-01T09:39:09;15.50;70.70
22416;DHT22;12204;50.600;4.608;2023-03-01T09:44:21;15.50;70.70
22416;DHT22;12204;50.600;4.608;2023-03-01T09:49:35;15.50;70.70
22416;DHT22;12204;50.600;4.608;2023-03-01T09:54:44;15.50;70.80
22416;DHT22;12204;50.600;4.608;2023-03-01T09:59:59;15.50;70.70
22416;DHT22;12204;50.600;4.608;2023-03-01T10:11:04;15.50;70.70
22416;DHT22;12204;50.600;4.608;2023-03-01T10:16:26;15.50;70.70
22416;DHT22;12204;50.600;4.608;2023-03-01T10:21:45;15.50;70.80
22416;DHT22;12204;50.600;4.608;2023-03-01T10:26:55;15.50;70.80
22416;DHT22;12204;50.600;4.608;2023-03-01T10:31:59;15.50;70.80
22416;DHT22;12204;50.600;4.608;2023-03-01T10:37:10;15.50;70.70
22416;DHT22;12204;50.600;4.608;2023-03-01T10:42:26;15.50;70.80
22416;DHT22;12204;50.600;4.608;2023-03-01T10:47:32;15.50;70.70
22416;DHT22;12204;50.600;4.608;2023-03-01T10:52:37;15.50;70.70
22416;DHT22;12204;50.600;4.608;2023-03-01T10:57:44;15.50;70.70
22416;DHT22;12204;50.600;4.608;2023-03-01T11:02:50;15.50;70.70
22416;DHT22;12204;50.600;4.608;2023-03-01T11:08:05;15.50;70.70
22416;DHT22;12204;50.600;4.608;2023-03-01T11:13:15;15.50;70.70
22416;DHT22;12204;50.600;4.608;2023-03-01T11:18:22;15.50;70.80
22416;DHT22;12204;50.600;4.608;2023-03-01T11:23:46;15.50;70.70
22416;DHT22;12204;50.600;4.608;2023-03-01T11:28:54;15.50;70.70
22416;DHT22;12204;50.600;4.608;2023-03-01T11:34:05;15.50;70.70
22416;DHT22;12204;50.600;4.608;2023-03-01T11:39:21;15.60;70.70
22416;DHT22;12204;50.600;4.608;2023-03-01T11:44:33;15.50;70.70
22416;DHT22;12204;50.600;4.608;2023-03-01T11:50:06;15.60;70.80
22416;DHT22;12204;50.600;4.608;2023-03-01T11:55:25;15.50;70.70
22416;DHT22;12204;50.600;4.608;2023-03-01T12:01:10;15.50;70.80
22416;DHT22;12204;50.600;4.608;2023-03-01T12:06:29;15.60;70.80
22416;DHT22;12204;50.600;4.608;2023-03-01T12:12:00;15.50;70.70
22416;DHT22;12204;50.600;4.608;2023-03-01T12:17:32;15.50;70.80
22416;DHT22;12204;50.600;4.608;2023-03-01T12:23:31;15.50;70.70
22416;DHT22;12204;50.600;4.608;2023-03-01T12:28:55;15.50;70.80
22416;DHT22;12204;50.600;4.608;2023-03-01T12:34:38;15.60;70.80
22416;DHT22;12204;50.600;4.608;2023-03-01T12:40:11;15.60;70.80
22416;DHT22;12204;50.600;4.608;2023-03-01T12:45:44;15.60;70.90
22416;DHT22;12204;50.600;4.608;2023-03-01T12:51:01;15.50;70.80
22416;DHT22;12204;50.600;4.608;2023-03-01T12:56:10;15.50;70.80
22416;DHT22;12204;50.600;4.608;2023-03-01T13:01:25;15.60;70.80
22416;DHT22;12204;50.600;4.608;2023-03-01T13:06:51;15.60;70.90
22416;DHT22;12204;50.600;4.608;2023-03-01T13:12:02;15.60;71.60
22416;DHT22;12204;50.600;4.608;2023-03-01T13:17:41;15.50;71.50
22416;DHT22;12204;50.600;4.608;2023-03-01T13:23:00;15.60;70.90
22416;DHT22;12204;50.600;4.608;2023-03-01T13:28:38;15.60;70.90
22416;DHT22;12204;50.600;4.608;2023-03-01T13:33:45;15.60;70.90
22416;DHT22;12204;50.600;4.608;2023-03-01T13:38:57;15.60;70.90
22416;DHT22;12204;50.600;4.608;2023-03-01T13:44:02;15.60;70.80
22416;DHT22;12204;50.600;4.608;2023-03-01T13:49:17;15.60;70.80
22416;DHT22;12204;50.600;4.608;2023-03-01T13:54:28;15.60;70.80
22416;DHT22;12204;50.600;4.608;2023-03-01T13:59:34;15.70;70.70
22416;DHT22;12204;50.600;4.608;2023-03-01T14:04:56;15.70;70.60
22416;DHT22;12204;50.600;4.608;2023-03-01T14:10:04;15.70;70.50
22416;DHT22;12204;50.600;4.608;2023-03-01T14:15:16;15.70;70.50
22416;DHT22;12204;50.600;4.608;2023-03-01T14:20:24;15.70;70.50
22416;DHT22;12204;50.600;4.608;2023-03-01T14:25:33;15.80;70.50
22416;DHT22;12204;50.600;4.608;2023-03-01T14:30:41;15.80;71.20
22416;DHT22;12204;50.600;4.608;2023-03-01T14:35:53;15.80;70.40
22416;DHT22;12204;50.600;4.608;2023-03-01T14:41:04;15.90;70.40
22416;DHT22;12204;50.600;4.608;2023-03-01T14:46:18;15.90;70.30
22416;DHT22;12204;50.600;4.608;2023-03-01T14:51:23;15.90;70.30
22416;DHT22;12204;50.600;4.608;2023-03-01T14:56:43;15.90;70.30
22416;DHT22;12204;50.600;4.608;2023-03-01T15:01:48;16.00;70.30
22416;DHT22;12204;50.600;4.608;2023-03-01T15:06:53;16.00;70.30
22416;DHT22;12204;50.600;4.608;2023-03-01T15:11:59;16.00;70.40
22416;DHT22;12204;50.600;4.608;2023-03-01T15:17:03;16.00;70.40
22416;DHT22;12204;50.600;4.608;2023-03-01T15:22:14;16.10;70.50
22416;DHT22;12204;50.600;4.608;2023-03-01T15:27:21;16.10;70.40
22416;DHT22;12204;50.600;4.608;2023-03-01T15:32:29;16.10;70.50
22416;DHT22;12204;50.600;4.608;2023-03-01T15:37:43;16.20;70.50
22416;DHT22;12204;50.600;4.608;2023-03-01T15:42:51;16.20;70.50
22416;DHT22;12204;50.600;4.608;2023-03-01T15:47:56;16.20;70.40
22416;DHT22;12204;50.600;4.608;2023-03-01T15:53:04;16.20;70.40
22416;DHT22;12204;50.600;4.608;2023-03-01T15:58:13;16.20;70.30
22416;DHT22;12204;50.600;4.608;2023-03-01T16:03:18;16.30;70.40
22416;DHT22;12204;50.600;4.608;2023-03-01T16:08:23;16.20;70.30
22416;DHT22;12204;50.600;4.608;2023-03-01T16:13:27;16.20;70.30
22416;DHT22;12204;50.600;4.608;2023-03-01T16:18:31;16.20;70.40
22416;DHT22;12204;50.600;4.608;2023-03-01T16:23:35;16.20;70.50
22416;DHT22;12204;50.600;4.608;2023-03-01T16:28:40;16.30;70.60
22416;DHT22;12204;50.600;4.608;2023-03-01T16:33:44;16.20;70.60
22416;DHT22;12204;50.600;4.608;2023-03-01T16:38:52;16.20;70.60
22416;DHT22;12204;50.600;4.608;2023-03-01T16:43:58;16.30;70.80
22416;DHT22;12204;50.600;4.608;2023-03-01T16:49:02;16.20;70.80
22416;DHT22;12204;50.600;4.608;2023-03-01T16:54:06;16.20;70.90
22416;DHT22;12204;50.600;4.608;2023-03-01T16:59:10;16.10;70.70
22416;DHT22;12204;50.600;4.608;2023-03-01T17:04:14;16.10;70.90
22416;DHT22;12204;50.600;4.608;2023-03-01T17:09:19;16.10;71.00
22416;DHT22;12204;50.600;4.608;2023-03-01T17:14:25;16.10;71.00
22416;DHT22;12204;50.600;4.608;2023-03-01T17:19:28;16.10;71.00
22416;DHT22;12204;50.600;4.608;2023-03-01T17:24:33;16.00;71.00
22416;DHT22;12204;50.600;4.608;2023-03-01T17:29:39;16.00;71.00
22416;DHT22;12204;50.600;4.608;2023-03-01T17:34:43;16.00;71.00
22416;DHT22;12204;50.600;4.608;2023-03-01T17:39:50;16.00;71.10
22416;DHT22;12204;50.600;4.608;2023-03-01T17:44:55;16.00;71.00
22416;DHT22;12204;50.600;4.608;2023-03-01T17:49:58;16.00;71.10
22416;DHT22;12204;50.600;4.608;2023-03-01T17:55:02;15.90;71.10
22416;DHT22;12204;50.600;4.608;2023-03-01T18:00:09;15.90;71.20
22416;DHT22;12204;50.600;4.608;2023-03-01T18:05:16;15.90;71.20
22416;DHT22;12204;50.600;4.608;2023-03-01T18:10:19;15.90;71.20
22416;DHT22;12204;50.600;4.608;2023-03-01T18:15:24;15.90;71.20
22416;DHT22;12204;50.600;4.608;2023-03-01T18:20:28;15.90;71.10
22416;DHT22;12204;50.600;4.608;2023-03-01T18:25:33;15.90;71.20
22416;DHT22;12204;50.600;4.608;2023-03-01T18:30:38;15.90;71.30
22416;DHT22;12204;50.600;4.608;2023-03-01T18:35:41;15.90;71.30
22416;DHT22;12204;50.600;4.608;2023-03-01T18:40:45;15.90;71.30
22416;DHT22;12204;50.600;4.608;2023-03-01T18:45:55;15.80;71.20
22416;DHT22;12204;50.600;4.608;2023-03-01T18:51:06;15.80;71.20
22416;DHT22;12204;50.600;4.608;2023-03-01T18:56:14;15.80;71.20
22416;DHT22;12204;50.600;4.608;2023-03-01T19:01:22;15.80;71.20
22416;DHT22;12204;50.600;4.608;2023-03-01T19:06:28;15.80;71.20
22416;DHT22;12204;50.600;4.608;2023-03-01T19:11:35;15.80;71.20
22416;DHT22;12204;50.600;4.608;2023-03-01T19:16:40;15.80;71.20
22416;DHT22;12204;50.600;4.608;2023-03-01T19:21:44;15.80;71.20
22416;DHT22;12204;50.600;4.608;2023-03-01T19:27:03;15.80;71.20
22416;DHT22;12204;50.600;4.608;2023-03-01T19:32:08;15.80;71.20
22416;DHT22;12204;50.600;4.608;2023-03-01T19:37:12;15.80;71.20
22416;DHT22;12204;50.600;4.608;2023-03-01T19:42:15;15.80;71.20
22416;DHT22;12204;50.600;4.608;2023-03-01T19:47:20;15.80;71.20
22416;DHT22;12204;50.600;4.608;2023-03-01T19:52:24;15.80;71.20
22416;DHT22;12204;50.600;4.608;2023-03-01T19:57:27;15.80;71.30
22416;DHT22;12204;50.600;4.608;2023-03-01T20:02:32;15.80;71.30
22416;DHT22;12204;50.600;4.608;2023-03-01T20:07:36;15.80;71.20
22416;DHT22;12204;50.600;4.608;2023-03-01T20:12:39;15.80;71.20
22416;DHT22;12204;50.600;4.608;2023-03-01T20:17:44;15.80;71.30
22416;DHT22;12204;50.600;4.608;2023-03-01T20:22:47;15.70;71.20
22416;DHT22;12204;50.600;4.608;2023-03-01T20:27:51;15.70;71.30
22416;DHT22;12204;50.600;4.608;2023-03-01T20:32:56;15.70;71.30
22416;DHT22;12204;50.600;4.608;2023-03-01T20:37:59;15.70;71.30
22416;DHT22;12204;50.600;4.608;2023-03-01T20:43:04;15.70;71.40
22416;DHT22;12204;50.600;4.608;2023-03-01T20:48:09;15.70;71.40
22416;DHT22;12204;50.600;4.608;2023-03-01T20:53:13;15.70;71.30
22416;DHT22;12204;50.600;4.608;2023-03-01T20:58:16;15.70;71.40
22416;DHT22;12204;50.600;4.608;2023-03-01T21:03:21;15.70;71.40
22416;DHT22;12204;50.600;4.608;2023-03-01T21:08:25;15.70;71.40
22416;DHT22;12204;50.600;4.608;2023-03-01T21:13:30;15.70;71.30
22416;DHT22;12204;50.600;4.608;2023-03-01T21:18:36;15.70;71.30
22416;DHT22;12204;50.600;4.608;2023-03-01T21:23:42;15.70;71.40
22416;DHT22;12204;50.600;4.608;2023-03-01T21:28:46;15.70;71.40
22416;DHT22;12204;50.600;4.608;2023-03-01T21:33:54;15.70;71.30
22416;DHT22;12204;50.600;4.608;2023-03-01T21:38:59;15.70;71.40
22416;DHT22;12204;50.600;4.608;2023-03-01T21:44:04;15.70;71.40
22416;DHT22;12204;50.600;4.608;2023-03-01T21:49:10;15.70;71.40
22416;DHT22;12204;50.600;4.608;2023-03-01T21:54:15;15.70;71.40
22416;DHT22;12204;50.600;4.608;2023-03-01T21:59:21;15.70;71.40
22416;DHT22;12204;50.600;4.608;2023-03-01T22:04:27;15.70;71.40
22416;DHT22;12204;50.600;4.608;2023-03-01T22:09:30;15.70;71.40
22416;DHT22;12204;50.600;4.608;2023-03-01T22:14:35;15.70;71.40
22416;DHT22;12204;50.600;4.608;2023-03-01T22:19:40;15.70;71.40
22416;DHT22;12204;50.600;4.608;2023-03-01T22:24:43;15.70;71.40
22416;DHT22;12204;50.600;4.608;2023-03-01T22:29:47;15.70;71.40
22416;DHT22;12204;50.600;4.608;2023-03-01T22:34:52;15.70;71.40
22416;DHT22;12204;50.600;4.608;2023-03-01T22:39:55;15.70;71.40
22416;DHT22;12204;50.600;4.608;2023-03-01T22:44:59;15.70;71.50
22416;DHT22;12204;50.600;4.608;2023-03-01T22:50:05;15.70;71.40
22416;DHT22;12204;50.600;4.608;2023-03-01T22:55:10;15.70;71.40
22416;DHT22;12204;50.600;4.608;2023-03-01T23:00:14;15.60;71.30
22416;DHT22;12204;50.600;4.608;2023-03-01T23:05:20;15.70;71.40
22416;DHT22;12204;50.600;4.608;2023-03-01T23:10:24;15.70;71.50
22416;DHT22;12204;50.600;4.608;2023-03-01T23:15:27;15.60;71.40
22416;DHT22;12204;50.600;4.608;2023-03-01T23:20:35;15.60;71.40
22416;DHT22;12204;50.600;4.608;2023-03-01T23:25:39;15.60;71.50
22416;DHT22;12204;50.600;4.608;2023-03-01T23:30:42;15.70;72.30
22416;DHT22;12204;50.600;4.608;2023-03-01T23:35:58;15.60;71.50
22416;DHT22;12204;50.600;4.608;2023-03-01T23:41:07;15.70;71.60
22416;DHT22;12204;50.600;4.608;2023-03-01T23:46:11;15.60;71.40
22416;DHT22;12204;50.600;4.608;2023-03-01T23:51:17;15.60;71.40
22416;DHT22;12204;50.600;4.608;2023-03-01T23:56:23;15.60;71.50
